This is the latest recevied weather packets stored in our database for station/object LU3GHF-13. If no packets are shown the sender has not sent any weather packets the latest 10 day(s).
| Time | Temp. | Humidity | Pressure | Rain* | Wind** | Luminosity | Snow |
|---|---|---|---|---|---|---|---|
| 1788290596 | 22.22° C | 78% | 1011.9 hPa | - | - | - | - |
| 1788289993 | 22.22° C | 79% | 1012 hPa | - | - | - | - |
| 1788289385 | 22.22° C | 79% | 1012 hPa | - | - | - | - |
| 1788288762 | 22.78° C | 78% | 1011.9 hPa | - | - | - | - |
| 1788288119 | 22.22° C | 79% | 1011.8 hPa | - | - | - | - |
| 1788287500 | 22.22° C | 79% | 1011.9 hPa | - | - | - | - |
| 1788286851 | 22.22° C | 78% | 1011.8 hPa | - | - | - | - |
| 1788286206 | 21.67° C | 80% | 1011.9 hPa | - | - | - | - |
| 1788285550 | 22.22° C | 79% | 1012.1 hPa | - | - | - | - |
| 1788284902 | 22.22° C | 80% | 1012.2 hPa | - | - | - | - |
| 1788284267 | 22.22° C | 79% | 1012.3 hPa | - | - | - | - |
| 1788283622 | 21.67° C | 83% | 1012.5 hPa | - | - | - | - |
| 1788282985 | 21.11° C | 85% | 1012.6 hPa | - | - | - | - |
| 1788282330 | 21.67° C | 83% | 1012.7 hPa | - | - | - | - |
| 1788281721 | 21.11° C | 84% | 1012.6 hPa | - | - | - | - |
| 1788281091 | 21.11° C | 85% | 1012.8 hPa | - | - | - | - |
| 1788280475 | 21.11° C | 85% | 1012.9 hPa | - | - | - | - |
| 1788279867 | 20.56° C | 86% | 1013.1 hPa | - | - | - | - |
| 1788279235 | 20.56° C | 86% | 1013.2 hPa | - | - | - | - |
| 1788278598 | 20.56° C | 86% | 1013.4 hPa | - | - | - | - |
| 1788277947 | 20° C | 87% | 1013.6 hPa | - | - | - | - |
| 1788277304 | 20° C | 88% | 1013.7 hPa | - | - | - | - |
| 1788276699 | 20.56° C | 88% | 1013.7 hPa | - | - | - | - |
| 1788276079 | 20° C | 89% | 1013.8 hPa | - | - | - | - |
| 1788275426 | 20° C | 88% | 1013.9 hPa | - | - | - | - |
* Rain since midnight (hover to see other rain measurements)
** Current wind speed in m/s (hover to see current wind gust speed)